KDMO

Sedalia Regional Airport

Sedalia, Missouri, USA
METAR KDMO 172153Z AUTO VRB05KT 10SM FEW041 FEW055 31/19 A3000 RMK AO2 SLP152 T03060194
Observed Flight Rules
Aug-17 @ 21:53 UTC (44 minutes ago) Visual Flight Rules
Wind Visibility Clouds
Variable at 5 knots 10 miles
  • Few at 4,100' AGL
  • Few at 5,500' AGL
Temperatures Readings
Current 31°C / 88°F
Dewpoint 19°C / 66°F
Humidity 49%
Altimeter 30" Hg
Pressure 1015.2 hPa
Elevation 274
METAR KDMO 172153Z AUTO VRB05KT 10SM FEW041 FEW055 31/19 A3000 RMK AO2 SLP152 T03060194
Observed Flight Rules
Aug-17 @ 21:53 UTC
(44 minutes ago)
VFR
Wind Visibility
Variable at 5 knots 10 miles
Clouds
  • Few at 4,100' AGL
  • Few at 5,500' AGL
Temperature Dewpoint
31°C / 88°F 19°C / 66°F
Humidity Altimeter Pressure
49% 30" Hg 1015.2 hPa